createdAt,value
2022-12-26T00:01:11.168Z,21.43
2022-12-26T00:03:39.684Z,20.87
2022-12-26T00:06:14.751Z,21.30
2022-12-26T00:08:43.471Z,20.70
2022-12-26T00:11:11.845Z,21.30
2022-12-26T00:13:41.824Z,23.97
2022-12-26T00:16:10.715Z,23.43
2022-12-26T00:18:39.265Z,23.57
2022-12-26T00:21:07.865Z,23.70
2022-12-26T00:23:37.590Z,25.33
2022-12-26T00:26:06.107Z,23.97
2022-12-26T00:28:34.492Z,25.57
2022-12-26T00:31:06.213Z,25.17
2022-12-26T00:33:35.530Z,23.23
2022-12-26T00:36:04.213Z,23.57
2022-12-26T00:38:32.562Z,23.43
2022-12-26T00:41:02.545Z,21.37
2022-12-26T00:43:30.876Z,21.33
2022-12-26T00:45:59.204Z,21.60
2022-12-26T00:48:28.841Z,21.13
2022-12-26T00:50:57.305Z,21.13
2022-12-26T00:53:25.694Z,21.60
2022-12-26T00:55:54.074Z,20.83
2022-12-26T00:58:23.991Z,21.93
2022-12-26T01:00:52.431Z,21.80
2022-12-26T01:03:21.250Z,21.23
2022-12-26T01:05:50.096Z,20.83
2022-12-26T01:08:21.526Z,20.73
2022-12-26T01:10:52.832Z,20.43
2022-12-26T01:13:21.206Z,18.90
2022-12-26T01:15:51.541Z,18.13
2022-12-26T01:18:20.080Z,19.10
2022-12-26T01:20:48.468Z,19.53
2022-12-26T01:23:16.990Z,18.70
2022-12-26T01:26:18.531Z,19.00
2022-12-26T01:28:33.687Z,16.33
2022-12-26T01:31:06.874Z,18.57
2022-12-26T01:33:36.500Z,18.27
2022-12-26T01:36:05.074Z,18.50
2022-12-26T01:38:33.412Z,18.03
2022-12-26T01:41:21.069Z,18.67
2022-12-26T01:43:53.575Z,16.93
2022-12-26T01:46:23.821Z,18.13
2022-12-26T01:48:52.473Z,17.53
2022-12-26T01:51:21.147Z,16.53
2022-12-26T01:53:50.081Z,16.87
2022-12-26T01:56:18.929Z,16.53
2022-12-26T01:58:48.505Z,17.07
2022-12-26T02:01:16.900Z,17.13
2022-12-26T02:04:04.344Z,17.47
2022-12-26T02:06:32.655Z,16.67
2022-12-26T02:09:01.034Z,17.77
2022-12-26T02:11:29.899Z,17.70
2022-12-26T02:13:58.272Z,17.17
2022-12-26T02:16:26.795Z,17.97
2022-12-26T02:18:56.546Z,16.93
2022-12-26T02:21:31.540Z,16.23
2022-12-26T02:24:03.540Z,15.90
2022-12-26T02:26:55.647Z,15.20
2022-12-26T02:29:38.927Z,15.23
2022-12-26T02:32:10.886Z,15.70
2022-12-26T02:34:41.192Z,15.37
2022-12-26T02:37:16.239Z,15.70
2022-12-26T02:39:49.025Z,14.87
2022-12-26T02:42:20.773Z,15.43
2022-12-26T02:45:08.011Z,14.37
2022-12-26T02:47:38.427Z,14.40
2022-12-26T02:50:26.960Z,15.10
2022-12-26T02:53:16.028Z,15.13
2022-12-26T02:56:03.249Z,15.70
2022-12-26T02:58:49.659Z,15.43
2022-12-26T03:01:37.236Z,15.57
2022-12-26T03:04:25.115Z,15.37
2022-12-26T03:07:12.614Z,15.97
2022-12-26T03:09:58.669Z,15.67
2022-12-26T03:12:46.661Z,15.90
2022-12-26T03:15:15.591Z,16.03
2022-12-26T03:17:43.660Z,15.67
2022-12-26T03:20:14.019Z,16.67
2022-12-26T03:22:43.522Z,15.73
2022-12-26T03:25:29.935Z,15.27
2022-12-26T03:27:58.356Z,16.07
2022-12-26T03:30:44.242Z,14.57
2022-12-26T03:33:26.588Z,14.30
2022-12-26T03:35:56.278Z,13.50
2022-12-26T03:38:24.910Z,13.23
2022-12-26T03:41:11.713Z,13.53
2022-12-26T03:44:01.080Z,13.70
2022-12-26T03:46:57.545Z,12.93
2022-12-26T03:49:45.033Z,11.47
2022-12-26T03:52:33.833Z,11.67
2022-12-26T03:55:21.845Z,11.50
2022-12-26T03:58:08.951Z,10.60
2022-12-26T04:00:55.093Z,10.70
2022-12-26T04:03:41.419Z,10.40
2022-12-26T04:06:28.476Z,9.80
2022-12-26T04:09:17.701Z,8.90
2022-12-26T04:12:02.857Z,8.77
2022-12-26T04:15:07.422Z,8.20
2022-12-26T04:17:55.458Z,7.93
2022-12-26T04:20:24.666Z,8.07
2022-12-26T04:23:12.445Z,6.90
2022-12-26T04:26:00.354Z,6.30
2022-12-26T04:28:46.237Z,6.60
2022-12-26T04:31:34.455Z,5.87
2022-12-26T04:34:20.934Z,5.87
2022-12-26T04:37:09.340Z,6.53
2022-12-26T04:39:55.119Z,5.77
2022-12-26T04:42:42.407Z,5.80
2022-12-26T04:45:11.124Z,5.60
2022-12-26T04:47:59.424Z,5.60
2022-12-26T04:50:26.962Z,5.50
2022-12-26T04:53:01.405Z,6.03
2022-12-26T04:55:30.207Z,5.30
2022-12-26T04:57:59.975Z,5.03
2022-12-26T05:00:28.593Z,6.70
2022-12-26T05:03:18.557Z,7.63
2022-12-26T05:06:08.383Z,10.17
2022-12-26T05:08:55.445Z,9.20
2022-12-26T05:11:23.926Z,6.50
2022-12-26T05:13:54.457Z,5.10
2022-12-26T05:16:40.413Z,4.93
2022-12-26T05:19:26.509Z,4.53
2022-12-26T05:22:12.458Z,4.00
2022-12-26T05:24:58.964Z,3.93
2022-12-26T05:27:44.894Z,3.57
2022-12-26T05:30:14.908Z,4.27
2022-12-26T05:33:00.892Z,3.90
2022-12-26T05:35:29.243Z,4.00
2022-12-26T05:37:57.600Z,4.23
2022-12-26T05:40:25.933Z,4.40
2022-12-26T05:42:54.287Z,4.40
2022-12-26T05:45:24.087Z,4.57
2022-12-26T05:47:52.559Z,4.63
2022-12-26T05:50:21.040Z,5.00
2022-12-26T05:52:49.395Z,4.73
2022-12-26T05:55:17.957Z,5.10
2022-12-26T05:57:46.441Z,4.40
2022-12-26T06:00:15.523Z,4.93
2022-12-26T06:02:45.414Z,5.07
2022-12-26T06:05:13.771Z,4.53
2022-12-26T06:07:42.242Z,5.17
2022-12-26T06:10:11.115Z,4.93
2022-12-26T06:12:39.540Z,4.90
2022-12-26T06:15:08.424Z,4.80
2022-12-26T06:17:36.810Z,5.20
2022-12-26T06:20:07.110Z,4.47
2022-12-26T06:22:35.560Z,5.20
2022-12-26T06:25:03.909Z,5.40
2022-12-26T06:27:32.353Z,4.73
2022-12-26T06:30:00.795Z,5.27
2022-12-26T06:32:29.157Z,4.63
2022-12-26T06:34:57.536Z,4.90
2022-12-26T06:37:27.225Z,5.30
2022-12-26T06:39:55.556Z,4.83
2022-12-26T06:42:24.482Z,4.83
2022-12-26T06:44:52.864Z,4.90
2022-12-26T06:47:21.281Z,5.20
2022-12-26T06:49:49.721Z,4.77
2022-12-26T06:52:18.181Z,4.63
2022-12-26T06:54:47.966Z,4.60
2022-12-26T06:57:16.310Z,4.90
2022-12-26T06:59:44.761Z,4.90
2022-12-26T07:02:13.211Z,4.90
2022-12-26T07:04:41.618Z,4.87
2022-12-26T07:07:10.000Z,4.47
2022-12-26T07:09:38.331Z,4.93
2022-12-26T07:12:08.352Z,4.77
2022-12-26T07:14:36.681Z,4.83
2022-12-26T07:17:05.018Z,4.50
2022-12-26T07:19:33.353Z,4.23
2022-12-26T07:22:01.752Z,4.10
2022-12-26T07:24:30.123Z,4.03
2022-12-26T07:26:58.458Z,4.23
2022-12-26T07:29:28.244Z,4.30
2022-12-26T07:31:58.163Z,4.27
2022-12-26T07:34:31.335Z,4.17
2022-12-26T07:37:00.434Z,4.03
2022-12-26T07:39:28.779Z,4.20
2022-12-26T07:42:00.442Z,3.87
2022-12-26T07:44:30.664Z,4.17
2022-12-26T07:46:59.080Z,4.20
2022-12-26T07:49:28.027Z,4.00
2022-12-26T07:51:56.408Z,4.70
2022-12-26T07:54:24.815Z,4.53
2022-12-26T07:56:53.168Z,4.13
2022-12-26T07:59:21.524Z,4.33
2022-12-26T08:01:51.434Z,3.77
2022-12-26T08:04:19.942Z,3.90
2022-12-26T08:06:48.410Z,4.40
2022-12-26T08:09:17.019Z,4.27
2022-12-26T08:11:45.556Z,3.73
2022-12-26T08:14:13.936Z,2.93
2022-12-26T08:16:44.488Z,1.93
2022-12-26T08:19:16.606Z,1.80
2022-12-26T08:21:45.010Z,1.67
2022-12-26T08:24:13.350Z,1.37
2022-12-26T08:26:41.837Z,1.80
2022-12-26T08:29:10.228Z,1.90
2022-12-26T08:31:38.624Z,1.63
2022-12-26T08:34:06.940Z,1.90
2022-12-26T08:36:36.798Z,2.60
2022-12-26T08:39:05.193Z,2.47
2022-12-26T08:41:33.560Z,2.63
2022-12-26T08:46:56.239Z,2.53
2022-12-26T08:49:24.615Z,2.57
2022-12-26T08:51:54.387Z,2.53
2022-12-26T08:54:22.694Z,3.30
2022-12-26T08:56:51.036Z,3.77
2022-12-26T08:59:19.413Z,3.33
2022-12-26T09:01:47.780Z,3.33
2022-12-26T09:04:16.213Z,2.70
2022-12-26T09:06:44.631Z,2.90
2022-12-26T09:09:14.457Z,2.17
2022-12-26T09:11:42.938Z,2.40
2022-12-26T09:14:11.534Z,2.90
2022-12-26T09:16:49.361Z,2.77
2022-12-26T09:19:18.516Z,2.87
2022-12-26T09:21:47.079Z,2.67
2022-12-26T09:24:17.248Z,2.00
2022-12-26T09:26:45.751Z,1.97
2022-12-26T09:29:14.310Z,2.50
2022-12-26T09:31:42.683Z,2.00
2022-12-26T09:34:11.106Z,2.07
2022-12-26T09:36:39.539Z,2.37
2022-12-26T09:39:07.988Z,2.30
2022-12-26T09:41:47.623Z,1.90
2022-12-26T09:44:17.339Z,2.10
2022-12-26T09:46:46.181Z,1.73
2022-12-26T09:49:15.419Z,2.73
2022-12-26T09:51:44.460Z,2.27
2022-12-26T09:54:13.801Z,2.30
2022-12-26T09:59:32.215Z,2.80
2022-12-26T10:02:00.678Z,2.23
2022-12-26T10:04:30.508Z,2.67
2022-12-26T10:07:01.822Z,2.53
2022-12-26T10:09:38.543Z,2.60
2022-12-26T10:12:17.208Z,2.60
2022-12-26T10:14:50.075Z,2.10
2022-12-26T10:17:20.751Z,2.63
2022-12-26T10:19:52.979Z,2.13
2022-12-26T10:22:42.393Z,2.40
2022-12-26T10:25:15.301Z,2.10
2022-12-26T10:27:43.796Z,2.00
2022-12-26T10:30:16.589Z,1.90
2022-12-26T10:32:45.731Z,1.80
2022-12-26T10:35:18.892Z,2.17
2022-12-26T10:37:47.717Z,3.07
2022-12-26T10:40:19.292Z,2.00
2022-12-26T10:42:48.502Z,2.57
2022-12-26T10:45:18.800Z,2.30
2022-12-26T10:47:47.365Z,2.47
2022-12-26T10:50:16.801Z,2.17
2022-12-26T10:52:45.130Z,1.90
2022-12-26T10:55:28.680Z,2.03
2022-12-26T10:57:58.598Z,2.40
2022-12-26T11:00:28.683Z,2.00
2022-12-26T11:03:04.148Z,2.40
2022-12-26T11:05:57.424Z,1.70
2022-12-26T11:08:21.592Z,1.67
2022-12-26T11:11:02.928Z,1.20
2022-12-26T11:13:31.272Z,2.87
2022-12-26T11:16:01.006Z,1.80
2022-12-26T11:18:34.248Z,1.77
2022-12-26T11:21:13.258Z,1.40
2022-12-26T11:23:41.881Z,1.90
2022-12-26T11:26:20.481Z,1.00
2022-12-26T11:28:48.865Z,1.57
2022-12-26T11:31:23.924Z,1.07
2022-12-26T11:33:52.310Z,1.40
2022-12-26T11:36:20.937Z,1.17
2022-12-26T11:38:50.562Z,1.10
2022-12-26T11:41:36.915Z,1.30
2022-12-26T11:44:07.429Z,1.30
2022-12-26T11:46:38.838Z,1.30
2022-12-26T11:49:12.546Z,1.37
2022-12-26T11:51:41.823Z,1.40
2022-12-26T11:54:20.930Z,1.73
2022-12-26T11:56:49.771Z,1.77
2022-12-26T11:59:19.972Z,1.50
2022-12-26T12:01:49.866Z,1.40
2022-12-26T12:04:18.341Z,1.90
2022-12-26T12:06:50.587Z,1.50
2022-12-26T12:09:20.476Z,1.63
2022-12-26T12:11:50.247Z,1.60
2022-12-26T12:14:22.776Z,1.53
2022-12-26T12:16:58.303Z,1.70
2022-12-26T12:19:30.533Z,1.40
2022-12-26T12:22:06.084Z,1.70
2022-12-26T12:24:38.306Z,2.17
2022-12-26T12:27:08.550Z,1.30
2022-12-26T12:29:39.858Z,1.60
2022-12-26T12:32:11.413Z,1.47
2022-12-26T12:34:44.655Z,1.73
2022-12-26T12:37:16.409Z,1.77
2022-12-26T12:39:47.625Z,1.60
2022-12-26T12:42:19.781Z,1.80
2022-12-26T12:44:56.669Z,1.30
2022-12-26T12:47:29.511Z,1.47
2022-12-26T12:50:00.802Z,1.70
2022-12-26T12:52:35.699Z,1.40
2022-12-26T12:55:22.156Z,1.33
2022-12-26T12:57:52.176Z,1.30
2022-12-26T13:00:21.802Z,1.20
2022-12-26T13:02:53.452Z,1.53
2022-12-26T13:05:24.856Z,1.67
2022-12-26T13:07:54.103Z,1.27
2022-12-26T13:10:23.818Z,1.10
2022-12-26T13:12:52.452Z,1.93
2022-12-26T13:15:30.187Z,1.40
2022-12-26T13:18:02.152Z,1.57
2022-12-26T13:20:31.862Z,1.23
2022-12-26T13:23:18.936Z,1.30
2022-12-26T13:25:49.152Z,3.10
2022-12-26T13:28:18.197Z,1.30
2022-12-26T13:30:46.705Z,1.73
2022-12-26T13:33:17.163Z,1.47
2022-12-26T13:35:52.308Z,1.60
2022-12-26T13:38:20.676Z,1.50
2022-12-26T13:40:49.198Z,1.83
2022-12-26T13:43:36.491Z,1.50
2022-12-26T13:46:04.940Z,1.20
2022-12-26T13:48:57.445Z,1.20
2022-12-26T13:51:46.574Z,1.10
2022-12-26T13:54:16.631Z,1.50
2022-12-26T13:56:55.310Z,1.40
2022-12-26T13:59:24.091Z,1.30
2022-12-26T14:01:55.787Z,1.60
2022-12-26T14:04:32.071Z,1.70
2022-12-26T14:07:05.388Z,1.60
2022-12-26T14:09:36.834Z,1.47
2022-12-26T14:12:16.138Z,2.10
2022-12-26T14:14:54.244Z,1.30
2022-12-26T14:17:24.544Z,1.43
2022-12-26T14:19:56.634Z,1.67
2022-12-26T14:22:27.283Z,1.70
2022-12-26T14:25:00.068Z,1.80
2022-12-26T14:27:30.691Z,1.90
2022-12-26T14:30:02.005Z,1.53
2022-12-26T14:32:33.520Z,1.67
2022-12-26T14:35:04.527Z,1.63
2022-12-26T14:37:36.940Z,2.80
2022-12-26T14:40:10.819Z,1.73
2022-12-26T14:43:12.070Z,2.00
2022-12-26T14:45:47.436Z,1.87
2022-12-26T14:48:34.265Z,1.57
2022-12-26T14:51:17.606Z,1.50
2022-12-26T14:53:48.369Z,2.20
2022-12-26T14:56:31.271Z,1.67
2022-12-26T14:59:14.541Z,1.73
2022-12-26T15:01:49.995Z,2.40
2022-12-26T15:04:33.521Z,1.90
2022-12-26T15:07:12.927Z,1.97
2022-12-26T15:09:56.115Z,1.87
2022-12-26T15:12:41.633Z,1.90
2022-12-26T15:15:18.294Z,1.90
2022-12-26T15:17:48.629Z,1.80
2022-12-26T15:20:35.875Z,2.23
2022-12-26T15:23:17.876Z,2.23
2022-12-26T15:25:55.432Z,2.13
2022-12-26T15:28:28.946Z,1.90
2022-12-26T15:31:13.496Z,2.10
2022-12-26T15:33:42.376Z,2.40
2022-12-26T15:36:18.131Z,2.30
2022-12-26T15:38:47.852Z,1.90
2022-12-26T15:41:18.233Z,1.70
2022-12-26T15:43:51.621Z,2.10
2022-12-26T15:46:20.688Z,1.90
2022-12-26T15:48:56.749Z,2.27
2022-12-26T15:51:26.527Z,1.97
2022-12-26T15:53:58.346Z,2.10
2022-12-26T15:56:30.262Z,2.20
2022-12-26T15:59:07.442Z,1.60
2022-12-26T16:01:39.318Z,2.37
2022-12-26T16:04:08.877Z,1.70
2022-12-26T16:06:43.136Z,1.90
2022-12-26T16:09:21.555Z,7.43
2022-12-26T16:11:53.753Z,7.13
2022-12-26T16:14:29.732Z,8.00
2022-12-26T16:17:11.248Z,2.57
2022-12-26T16:19:40.886Z,2.60
2022-12-26T16:22:27.638Z,2.43
2022-12-26T16:24:56.067Z,2.47
2022-12-26T16:27:26.157Z,2.43
2022-12-26T16:29:55.421Z,2.17
2022-12-26T16:32:24.121Z,14.47
2022-12-26T16:34:52.549Z,14.03
2022-12-26T16:37:21.194Z,6.90
2022-12-26T16:40:05.021Z,2.50
2022-12-26T16:42:34.747Z,2.40
2022-12-26T16:45:03.518Z,3.40
2022-12-26T16:47:32.385Z,4.53
2022-12-26T16:50:01.012Z,2.77
2022-12-26T16:52:33.248Z,2.30
2022-12-26T16:55:14.555Z,2.10
2022-12-26T16:57:44.613Z,3.03
2022-12-26T17:00:17.272Z,2.50
2022-12-26T17:02:46.572Z,3.00
2022-12-26T17:05:18.695Z,2.47
2022-12-26T17:07:47.366Z,2.37
2022-12-26T17:10:19.790Z,4.37
2022-12-26T17:12:49.757Z,3.10
2022-12-26T17:15:21.788Z,3.67
2022-12-26T17:17:50.235Z,2.97
2022-12-26T17:20:37.963Z,2.30
2022-12-26T17:23:24.725Z,2.20
2022-12-26T17:25:53.135Z,2.13
2022-12-26T17:28:29.286Z,2.27
2022-12-26T17:30:57.726Z,2.20
2022-12-26T17:33:26.630Z,2.10
2022-12-26T17:38:46.175Z,5.27
2022-12-26T17:41:15.627Z,3.37
2022-12-26T17:43:45.449Z,2.40
2022-12-26T17:46:14.727Z,2.87
2022-12-26T17:48:43.349Z,2.33
2022-12-26T17:51:14.024Z,2.03
2022-12-26T17:53:42.684Z,2.20
2022-12-26T17:56:12.952Z,1.90
2022-12-26T17:58:41.351Z,1.73
2022-12-26T18:01:14.669Z,1.33
2022-12-26T18:03:46.037Z,1.70
2022-12-26T18:06:16.595Z,1.47
2022-12-26T18:08:45.836Z,1.63
2022-12-26T18:11:14.705Z,2.90
2022-12-26T18:13:44.417Z,1.87
2022-12-26T18:16:14.944Z,1.20
2022-12-26T18:18:44.495Z,1.30
2022-12-26T18:21:13.458Z,1.90
2022-12-26T18:23:41.980Z,1.60
2022-12-26T18:26:10.826Z,1.50
2022-12-26T18:28:39.204Z,1.70
2022-12-26T18:31:07.641Z,1.87
2022-12-26T18:33:37.487Z,1.70
2022-12-26T18:36:07.870Z,1.60
2022-12-26T18:38:36.593Z,1.70
2022-12-26T18:41:05.036Z,2.20
2022-12-26T18:43:33.746Z,1.73
2022-12-26T18:46:02.253Z,1.87
2022-12-26T18:48:30.729Z,1.90
2022-12-26T18:51:02.707Z,2.20
2022-12-26T18:53:31.341Z,1.70
2022-12-26T18:55:59.735Z,2.00
2022-12-26T18:58:28.273Z,2.50
2022-12-26T19:00:56.869Z,1.83
2022-12-26T19:03:25.322Z,2.33
2022-12-26T19:05:53.799Z,1.70
2022-12-26T19:08:23.662Z,2.33
2022-12-26T19:10:52.128Z,2.97
2022-12-26T19:13:20.629Z,2.17
2022-12-26T19:15:49.418Z,1.60
2022-12-26T19:18:17.972Z,1.80
2022-12-26T19:20:46.492Z,2.13
2022-12-26T19:23:14.864Z,2.40
2022-12-26T19:25:44.687Z,1.60
2022-12-26T19:28:13.223Z,1.80
2022-12-26T19:30:41.688Z,1.80
2022-12-26T19:33:10.341Z,1.60
2022-12-26T19:35:38.906Z,1.50
2022-12-26T19:38:07.343Z,1.60
2022-12-26T19:40:35.831Z,1.73
2022-12-26T19:43:05.667Z,2.33
2022-12-26T19:45:34.138Z,2.30
2022-12-26T19:48:02.680Z,2.33
2022-12-26T19:50:31.161Z,1.77
2022-12-26T19:52:59.798Z,1.93
2022-12-26T19:55:28.218Z,2.03
2022-12-26T19:57:56.634Z,2.43
2022-12-26T20:00:26.779Z,2.27
2022-12-26T20:02:55.228Z,3.53
2022-12-26T20:05:23.834Z,4.50
2022-12-26T20:07:52.293Z,2.37
2022-12-26T20:10:20.785Z,2.00
2022-12-26T20:12:49.231Z,2.60
2022-12-26T20:15:17.711Z,1.97
2022-12-26T20:17:47.550Z,2.10
2022-12-26T20:20:16.085Z,2.00
2022-12-26T20:22:52.721Z,1.80
2022-12-26T20:25:21.815Z,1.80
2022-12-26T20:27:53.357Z,2.67
2022-12-26T20:30:21.972Z,2.60
2022-12-26T20:32:51.831Z,1.73
2022-12-26T20:35:20.185Z,2.13
2022-12-26T20:37:48.592Z,2.10
2022-12-26T20:40:17.140Z,2.43
2022-12-26T20:42:46.043Z,2.07
2022-12-26T20:45:14.496Z,1.80
2022-12-26T20:47:43.008Z,2.10
2022-12-26T20:50:13.008Z,2.30
2022-12-26T20:52:41.472Z,2.03
2022-12-26T20:55:10.207Z,2.10
2022-12-26T20:57:38.666Z,1.93
2022-12-26T21:00:08.453Z,3.77
2022-12-26T21:02:37.013Z,2.60
2022-12-26T21:05:05.906Z,2.70
2022-12-26T21:07:36.041Z,2.37
2022-12-26T21:10:04.615Z,3.23
2022-12-26T21:12:33.162Z,2.40
2022-12-26T21:15:01.639Z,2.20
2022-12-26T21:17:30.155Z,2.00
2022-12-26T21:19:58.626Z,2.77
2022-12-26T21:22:27.044Z,2.00
2022-12-26T21:24:56.908Z,2.43
2022-12-26T21:27:25.341Z,2.17
2022-12-26T21:29:53.825Z,2.57
2022-12-26T21:32:22.415Z,2.60
2022-12-26T21:34:50.885Z,2.17
2022-12-26T21:37:36.891Z,1.97
2022-12-26T21:40:07.384Z,2.63
2022-12-26T21:42:35.889Z,2.37
2022-12-26T21:45:04.374Z,1.87
2022-12-26T21:47:35.861Z,1.83
2022-12-26T21:50:04.400Z,2.37
2022-12-26T21:52:33.022Z,1.90
2022-12-26T21:55:19.297Z,2.27
2022-12-26T21:57:49.160Z,2.40
2022-12-26T22:00:17.916Z,2.30
2022-12-26T22:03:04.037Z,2.60
2022-12-26T22:05:32.698Z,2.60
2022-12-26T22:08:01.724Z,2.23
2022-12-26T22:10:48.156Z,2.50
2022-12-26T22:13:18.004Z,2.50
2022-12-26T22:16:05.308Z,2.93
2022-12-26T22:18:34.334Z,2.10
2022-12-26T22:21:03.448Z,2.10
2022-12-26T22:23:31.871Z,2.40
2022-12-26T22:26:00.341Z,2.20
2022-12-26T22:28:30.643Z,3.17
2022-12-26T22:30:59.142Z,2.13
2022-12-26T22:33:27.904Z,2.67
2022-12-26T22:38:35.671Z,3.37
2022-12-26T22:41:04.352Z,2.50
2022-12-26T22:43:34.571Z,2.10
2022-12-26T22:46:03.421Z,2.20
2022-12-26T22:48:32.544Z,1.93
2022-12-26T22:51:01.044Z,2.13
2022-12-26T22:53:29.961Z,2.67
2022-12-26T22:56:02.340Z,2.33
2022-12-26T22:58:30.969Z,2.10
2022-12-26T23:01:01.119Z,1.87
2022-12-26T23:03:33.322Z,2.30
2022-12-26T23:06:01.973Z,2.30
2022-12-26T23:08:30.529Z,2.17
2022-12-26T23:10:59.838Z,2.13
2022-12-26T23:13:28.740Z,2.30
2022-12-26T23:16:02.406Z,2.20
2022-12-26T23:18:52.192Z,2.23
2022-12-26T23:21:40.450Z,2.43
2022-12-26T23:24:09.580Z,2.30
2022-12-26T23:26:38.120Z,2.57
2022-12-26T23:29:24.208Z,2.13
2022-12-26T23:31:55.861Z,2.17
2022-12-26T23:34:28.597Z,2.83
2022-12-26T23:36:57.069Z,3.30
2022-12-26T23:39:31.588Z,2.37
2022-12-26T23:42:02.595Z,2.27
2022-12-26T23:44:32.526Z,2.50
2022-12-26T23:47:01.208Z,2.60
2022-12-26T23:49:31.435Z,2.73
2022-12-26T23:51:59.883Z,2.57
2022-12-26T23:54:28.704Z,2.70
2022-12-26T23:56:57.385Z,2.73
2022-12-26T23:59:26.262Z,2.40
